Time;durP1;ratioP1;P1;durP2;ratioP2;P2;SDS_P1;SDS_P2;PMS_P1;PMS_P2;Temp;Humidity;BMP_temperature;BMP_pressure;BME280_temperature;BME280_humidity;BME280_pressure;Samples;Min_cycle;Max_cycle;Signal;HPM_P1;HPM_P2
2023/07/26 00:02:18;;;;;;;2.83;0.90;;;;;;;;;;4963891;28;20073;-76
2023/07/26 00:04:43;;;;;;;4.18;1.05;;;;;;;;;;4969446;28;20035;-77
2023/07/26 00:07:09;;;;;;;4.40;0.88;;;;;;;;;;4977597;28;20904;-76
2023/07/26 00:09:34;;;;;;;3.45;0.80;;;;;;;;;;4969276;28;20035;-76
2023/07/26 00:12:00;;;;;;;4.78;0.95;;;;;;;;;;4965468;28;20034;-76
2023/07/26 00:14:25;;;;;;;5.90;1.10;;;;;;;;;;4974685;28;20090;-76
2023/07/26 00:16:50;;;;;;;2.55;0.93;;;;;;;;;;4982946;28;20042;-76
2023/07/26 00:19:19;;;;;;;5.90;1.15;;;;;;;;;;4978434;28;20489;-77
2023/07/26 00:21:47;;;;;;;5.93;0.90;;;;;;;;;;4976237;28;20031;-76
2023/07/26 00:24:12;;;;;;;3.42;1.05;;;;;;;;;;4975050;28;20034;-78
2023/07/26 00:26:38;;;;;;;5.43;1.10;;;;;;;;;;4975401;28;20081;-77
2023/07/26 00:29:03;;;;;;;4.43;1.02;;;;;;;;;;4966607;28;20031;-78
2023/07/26 00:31:28;;;;;;;5.97;1.27;;;;;;;;;;4974979;28;20447;-77
2023/07/26 00:33:54;;;;;;;4.07;1.20;;;;;;;;;;4975299;28;20405;-78
2023/07/26 00:36:19;;;;;;;3.65;0.90;;;;;;;;;;4982666;28;20481;-78
2023/07/26 00:38:44;;;;;;;5.22;1.08;;;;;;;;;;4976826;28;20035;-76
2023/07/26 00:41:10;;;;;;;4.50;1.00;;;;;;;;;;4983575;28;20045;-76
2023/07/26 00:43:35;;;;;;;5.88;1.15;;;;;;;;;;4991951;28;20097;-76
2023/07/26 00:46:01;;;;;;;6.95;1.10;;;;;;;;;;4975833;28;20042;-76
2023/07/26 00:48:26;;;;;;;4.68;1.00;;;;;;;;;;4991420;28;20027;-76
2023/07/26 00:50:52;;;;;;;2.53;0.80;;;;;;;;;;4968303;28;20042;-76
2023/07/26 00:53:18;;;;;;;3.75;1.08;;;;;;;;;;4963414;28;20490;-76
2023/07/26 00:55:44;;;;;;;3.40;0.82;;;;;;;;;;4973988;28;20031;-77
2023/07/26 00:58:11;;;;;;;5.53;1.38;;;;;;;;;;4976170;28;20038;-76
2023/07/26 01:00:40;;;;;;;4.88;1.02;;;;;;;;;;4977317;28;20042;-76
2023/07/26 01:03:06;;;;;;;4.63;0.90;;;;;;;;;;4961790;28;20065;-77
2023/07/26 01:05:38;;;;;;;4.93;1.10;;;;;;;;;;4975219;28;20041;-76
2023/07/26 01:08:07;;;;;;;7.13;1.10;;;;;;;;;;4991897;28;20035;-77
2023/07/26 01:10:48;;;;;;;5.65;0.95;;;;;;;;;;4972688;28;20049;-76
2023/07/26 01:13:19;;;;;;;4.03;1.08;;;;;;;;;;4958812;28;20042;-76
2023/07/26 01:15:46;;;;;;;4.88;1.92;;;;;;;;;;4977987;28;20124;-76
2023/07/26 01:18:13;;;;;;;6.28;1.40;;;;;;;;;;4976042;28;20121;-76
2023/07/26 01:20:39;;;;;;;4.20;1.10;;;;;;;;;;4960363;28;20507;-76
2023/07/26 01:23:04;;;;;;;4.50;0.90;;;;;;;;;;4972023;28;20030;-77
2023/07/26 01:25:30;;;;;;;4.40;1.05;;;;;;;;;;4982808;28;21163;-76
2023/07/26 01:27:55;;;;;;;2.75;0.90;;;;;;;;;;4980980;28;20116;-76
2023/07/26 01:30:21;;;;;;;5.07;1.20;;;;;;;;;;4986148;28;20029;-77
2023/07/26 01:32:50;;;;;;;6.47;1.20;;;;;;;;;;4979152;28;20117;-76
2023/07/26 01:35:17;;;;;;;5.07;1.02;;;;;;;;;;4979512;28;20046;-76
2023/07/26 01:37:45;;;;;;;5.10;1.80;;;;;;;;;;4993415;28;20034;-76
2023/07/26 01:40:11;;;;;;;4.75;1.10;;;;;;;;;;4979936;28;20038;-76
2023/07/26 01:42:37;;;;;;;6.25;1.27;;;;;;;;;;4967702;28;20085;-77
2023/07/26 01:45:03;;;;;;;4.68;1.25;;;;;;;;;;4980126;28;20575;-76
2023/07/26 01:47:29;;;;;;;5.38;1.27;;;;;;;;;;4979010;28;20038;-76
2023/07/26 01:49:54;;;;;;;3.67;1.05;;;;;;;;;;4966809;28;20030;-76
2023/07/26 01:52:20;;;;;;;4.43;1.00;;;;;;;;;;4976042;28;20046;-76
2023/07/26 01:54:45;;;;;;;5.28;1.35;;;;;;;;;;4979100;28;20524;-77
2023/07/26 01:57:11;;;;;;;4.47;1.10;;;;;;;;;;4991977;28;20042;-76
2023/07/26 01:59:36;;;;;;;6.95;1.38;;;;;;;;;;4982979;28;20034;-77
2023/07/26 02:02:02;;;;;;;4.95;1.10;;;;;;;;;;4969663;28;20054;-77
2023/07/26 02:04:27;;;;;;;4.10;1.02;;;;;;;;;;4994151;28;20044;-77
2023/07/26 02:06:53;;;;;;;5.63;1.25;;;;;;;;;;4975991;28;20041;-77
2023/07/26 02:09:19;;;;;;;5.32;1.20;;;;;;;;;;4979083;28;20034;-77
2023/07/26 02:11:44;;;;;;;5.30;1.20;;;;;;;;;;4976697;28;20035;-76
2023/07/26 02:14:10;;;;;;;5.15;1.10;;;;;;;;;;4983872;28;20057;-77
2023/07/26 02:16:35;;;;;;;5.85;1.33;;;;;;;;;;4989279;28;20039;-76
2023/07/26 02:19:01;;;;;;;4.40;1.10;;;;;;;;;;4982589;28;20042;-77
2023/07/26 02:21:26;;;;;;;5.22;1.35;;;;;;;;;;4992471;28;20037;-77
2023/07/26 02:23:51;;;;;;;7.68;1.20;;;;;;;;;;4995793;28;20034;-77
2023/07/26 02:26:17;;;;;;;5.93;1.35;;;;;;;;;;4991509;28;20038;-77
2023/07/26 02:28:42;;;;;;;4.75;1.10;;;;;;;;;;4985850;28;20161;-77
2023/07/26 02:31:07;;;;;;;6.25;1.60;;;;;;;;;;4967167;28;20490;-77
2023/07/26 02:33:33;;;;;;;5.05;1.00;;;;;;;;;;4993359;28;20050;-77
2023/07/26 02:35:59;;;;;;;4.20;1.20;;;;;;;;;;4973870;28;20031;-77
2023/07/26 02:38:25;;;;;;;5.53;1.88;;;;;;;;;;4994153;28;20118;-77
2023/07/26 02:40:51;;;;;;;5.55;1.30;;;;;;;;;;4963583;28;20063;-77
2023/07/26 02:43:16;;;;;;;5.35;1.42;;;;;;;;;;4967367;28;20046;-77
2023/07/26 02:45:42;;;;;;;7.18;1.45;;;;;;;;;;4984040;28;20439;-77
2023/07/26 02:48:08;;;;;;;4.90;1.20;;;;;;;;;;4984846;28;20027;-77
2023/07/26 02:50:33;;;;;;;5.65;1.88;;;;;;;;;;4995324;28;20037;-77
2023/07/26 02:52:59;;;;;;;5.03;1.48;;;;;;;;;;4986166;28;20054;-77
2023/07/26 02:55:24;;;;;;;4.60;1.10;;;;;;;;;;4979375;28;20084;-77
2023/07/26 02:57:50;;;;;;;4.43;1.25;;;;;;;;;;4973944;28;20104;-77
2023/07/26 03:00:15;;;;;;;6.25;1.10;;;;;;;;;;4974123;28;20042;-77
2023/07/26 03:02:41;;;;;;;5.25;1.40;;;;;;;;;;4993213;28;20518;-77
2023/07/26 03:05:06;;;;;;;6.15;1.60;;;;;;;;;;4978952;28;20435;-77
2023/07/26 03:07:32;;;;;;;5.40;1.23;;;;;;;;;;4996499;28;20390;-77
2023/07/26 03:09:57;;;;;;;5.65;1.55;;;;;;;;;;4980202;28;20095;-77
2023/07/26 03:12:22;;;;;;;5.68;1.20;;;;;;;;;;4970998;28;20038;-76
2023/07/26 03:14:48;;;;;;;4.63;1.52;;;;;;;;;;4968376;28;20062;-77
2023/07/26 03:17:13;;;;;;;3.92;1.50;;;;;;;;;;4976017;28;20046;-76
2023/07/26 03:19:38;;;;;;;3.60;1.15;;;;;;;;;;4967728;28;20073;-77
2023/07/26 03:22:04;;;;;;;6.03;1.50;;;;;;;;;;4975724;28;20031;-77
2023/07/26 03:24:29;;;;;;;5.82;1.42;;;;;;;;;;4981391;28;20035;-76
2023/07/26 03:26:55;;;;;;;7.60;1.70;;;;;;;;;;4966264;28;20034;-77
2023/07/26 03:29:20;;;;;;;5.75;1.45;;;;;;;;;;4984738;28;20525;-77
2023/07/26 03:31:45;;;;;;;5.00;1.33;;;;;;;;;;4986947;28;20054;-77
2023/07/26 03:34:11;;;;;;;4.85;1.40;;;;;;;;;;4964133;28;20494;-76
2023/07/26 03:36:36;;;;;;;4.32;1.52;;;;;;;;;;4965938;28;20039;-77
2023/07/26 03:39:02;;;;;;;8.18;1.40;;;;;;;;;;4974230;28;20050;-77
2023/07/26 03:41:27;;;;;;;6.72;1.55;;;;;;;;;;4969168;28;20921;-76
2023/07/26 03:43:53;;;;;;;6.35;1.67;;;;;;;;;;4971682;28;20092;-76
2023/07/26 03:46:18;;;;;;;5.50;1.63;;;;;;;;;;4976196;28;20031;-77
2023/07/26 03:48:43;;;;;;;6.30;1.42;;;;;;;;;;4981081;28;20089;-77
2023/07/26 03:51:09;;;;;;;7.43;1.75;;;;;;;;;;4975923;28;20038;-77
2023/07/26 03:53:34;;;;;;;6.45;1.50;;;;;;;;;;4969887;28;20052;-77
2023/07/26 03:55:59;;;;;;;4.25;1.60;;;;;;;;;;4976977;28;20039;-76
2023/07/26 03:58:25;;;;;;;5.30;1.55;;;;;;;;;;4979747;28;20039;-77
2023/07/26 04:00:50;;;;;;;5.75;1.73;;;;;;;;;;4975402;28;20047;-77
2023/07/26 04:03:16;;;;;;;5.32;1.70;;;;;;;;;;4977822;28;20045;-77
2023/07/26 04:05:42;;;;;;;6.28;1.77;;;;;;;;;;4990575;28;20073;-77
2023/07/26 04:08:07;;;;;;;6.90;1.80;;;;;;;;;;4969401;28;20062;-77
2023/07/26 04:10:33;;;;;;;5.15;1.52;;;;;;;;;;4976340;28;20038;-77
2023/07/26 04:12:58;;;;;;;6.40;1.60;;;;;;;;;;4965955;28;20050;-77
2023/07/26 04:15:24;;;;;;;4.53;1.55;;;;;;;;;;4969728;28;20495;-77
2023/07/26 04:17:49;;;;;;;8.10;2.53;;;;;;;;;;4986629;28;20829;-76
2023/07/26 04:20:15;;;;;;;5.32;1.40;;;;;;;;;;4976791;28;20050;-76
2023/07/26 04:22:40;;;;;;;4.53;1.60;;;;;;;;;;4961801;28;20031;-76
2023/07/26 04:25:07;;;;;;;5.30;1.63;;;;;;;;;;4968726;28;20541;-77
2023/07/26 04:27:32;;;;;;;7.43;1.60;;;;;;;;;;4981408;28;20042;-77
2023/07/26 04:29:57;;;;;;;5.65;1.45;;;;;;;;;;4967916;28;20039;-77
2023/07/26 04:32:26;;;;;;;8.35;1.63;;;;;;;;;;4974759;28;20117;-76
2023/07/26 04:34:51;;;;;;;9.20;2.28;;;;;;;;;;4978030;28;20397;-78
2023/07/26 04:37:17;;;;;;;5.53;1.65;;;;;;;;;;4967248;28;20125;-76
2023/07/26 04:39:42;;;;;;;8.50;2.53;;;;;;;;;;4970536;28;20134;-77
2023/07/26 04:42:07;;;;;;;6.13;1.50;;;;;;;;;;4964759;28;20117;-76
2023/07/26 04:44:33;;;;;;;5.05;1.50;;;;;;;;;;4961338;28;20138;-77
2023/07/26 04:46:58;;;;;;;4.90;1.45;;;;;;;;;;4984447;28;20092;-77
2023/07/26 04:49:23;;;;;;;5.00;1.58;;;;;;;;;;4979188;28;20046;-77
2023/07/26 04:51:49;;;;;;;6.13;1.80;;;;;;;;;;4969142;28;20038;-76
2023/07/26 04:54:15;;;;;;;8.52;1.63;;;;;;;;;;4965476;28;20528;-76
2023/07/26 04:56:40;;;;;;;6.32;1.60;;;;;;;;;;4976038;28;20027;-77
2023/07/26 04:59:06;;;;;;;5.18;1.63;;;;;;;;;;4976202;28;20050;-77
2023/07/26 05:01:31;;;;;;;7.00;1.98;;;;;;;;;;4990749;28;20039;-77
2023/07/26 05:03:57;;;;;;;5.93;1.60;;;;;;;;;;4985475;28;20383;-77
2023/07/26 05:06:24;;;;;;;5.55;1.70;;;;;;;;;;4975079;28;20073;-76
2023/07/26 05:08:49;;;;;;;7.03;1.60;;;;;;;;;;4968109;28;20034;-77
2023/07/26 05:11:15;;;;;;;6.97;1.60;;;;;;;;;;4977717;28;20051;-76
2023/07/26 05:13:41;;;;;;;5.47;1.20;;;;;;;;;;4975199;28;20035;-77
2023/07/26 05:16:06;;;;;;;5.13;1.50;;;;;;;;;;4972603;28;20047;-77
2023/07/26 05:18:31;;;;;;;5.97;1.80;;;;;;;;;;4945878;28;20035;-77
2023/07/26 05:20:57;;;;;;;5.80;1.63;;;;;;;;;;4959216;28;20092;-77
2023/07/26 05:23:22;;;;;;;6.00;1.58;;;;;;;;;;4976556;28;20494;-77
2023/07/26 05:25:47;;;;;;;6.55;1.70;;;;;;;;;;4977345;28;20413;-77
2023/07/26 05:28:13;;;;;;;4.18;1.40;;;;;;;;;;4952645;28;20077;-77
2023/07/26 05:30:41;;;;;;;4.38;1.55;;;;;;;;;;4955843;28;20042;-78
2023/07/26 05:33:07;;;;;;;5.22;1.52;;;;;;;;;;4948871;28;20037;-77
2023/07/26 05:35:33;;;;;;;6.05;1.90;;;;;;;;;;4942469;28;20042;-77
2023/07/26 05:37:58;;;;;;;4.70;1.50;;;;;;;;;;4976425;28;20038;-77
2023/07/26 05:40:24;;;;;;;4.40;1.40;;;;;;;;;;4943525;28;20054;-77
2023/07/26 05:42:49;;;;;;;5.53;1.70;;;;;;;;;;4957337;28;20040;-77
2023/07/26 05:45:15;;;;;;;5.65;1.63;;;;;;;;;;4974100;28;20510;-76
2023/07/26 05:47:40;;;;;;;5.13;1.50;;;;;;;;;;4961973;28;20537;-76
2023/07/26 05:50:06;;;;;;;5.05;1.50;;;;;;;;;;4957987;28;20534;-75
2023/07/26 05:52:32;;;;;;;6.78;1.35;;;;;;;;;;4948021;28;20054;-77
2023/07/26 05:54:57;;;;;;;6.28;1.73;;;;;;;;;;4948212;28;20070;-76
2023/07/26 05:57:23;;;;;;;3.47;1.30;;;;;;;;;;4960470;28;20041;-75
2023/07/26 05:59:48;;;;;;;6.75;1.80;;;;;;;;;;4975456;28;20038;-75
2023/07/26 06:02:14;;;;;;;3.63;1.50;;;;;;;;;;4964057;28;20066;-76
2023/07/26 06:04:39;;;;;;;6.53;1.40;;;;;;;;;;4963497;28;20058;-76
2023/07/26 06:07:05;;;;;;;4.93;1.30;;;;;;;;;;4971867;28;20042;-76
2023/07/26 06:09:30;;;;;;;5.07;1.45;;;;;;;;;;4967442;28;20089;-76
2023/07/26 06:11:56;;;;;;;3.65;1.50;;;;;;;;;;4945578;28;20038;-76
2023/07/26 06:14:23;;;;;;;7.40;1.38;;;;;;;;;;4951306;28;20042;-75
2023/07/26 06:16:48;;;;;;;4.25;1.42;;;;;;;;;;4949696;28;20482;-76
2023/07/26 06:19:14;;;;;;;4.18;1.50;;;;;;;;;;4974157;28;20126;-76
2023/07/26 06:21:39;;;;;;;4.78;1.27;;;;;;;;;;4961621;28;20498;-77
2023/07/26 06:24:04;;;;;;;7.28;1.50;;;;;;;;;;4974752;28;20109;-76
2023/07/26 06:26:30;;;;;;;4.32;1.42;;;;;;;;;;4974411;28;20084;-76
2023/07/26 06:28:55;;;;;;;5.60;1.48;;;;;;;;;;4961633;28;20063;-75
2023/07/26 06:31:20;;;;;;;4.90;1.45;;;;;;;;;;4973043;28;21461;-76
2023/07/26 06:33:46;;;;;;;4.90;1.30;;;;;;;;;;4975283;28;20137;-76
2023/07/26 06:36:11;;;;;;;4.55;1.23;;;;;;;;;;4961451;28;20133;-76
2023/07/26 06:38:36;;;;;;;4.15;1.08;;;;;;;;;;4962319;28;20398;-75
2023/07/26 06:41:02;;;;;;;5.40;1.33;;;;;;;;;;4965765;28;20042;-77
2023/07/26 06:43:28;;;;;;;8.00;1.30;;;;;;;;;;4983635;28;20410;-77
2023/07/26 06:45:54;;;;;;;3.47;1.20;;;;;;;;;;4963952;28;20063;-77
2023/07/26 06:48:19;;;;;;;4.72;1.27;;;;;;;;;;4979385;28;20514;-77
2023/07/26 06:50:45;;;;;;;4.43;1.00;;;;;;;;;;4972206;28;20038;-77
2023/07/26 06:53:11;;;;;;;5.05;1.10;;;;;;;;;;4962644;28;20042;-77
2023/07/26 06:55:36;;;;;;;5.13;1.30;;;;;;;;;;4966094;28;20502;-77
2023/07/26 06:58:02;;;;;;;4.88;1.55;;;;;;;;;;4966148;28;20026;-77
2023/07/26 07:00:27;;;;;;;5.15;1.05;;;;;;;;;;4960450;28;20437;-77
2023/07/26 07:02:56;;;;;;;4.47;1.10;;;;;;;;;;4981028;28;20057;-78
2023/07/26 07:05:22;;;;;;;5.47;1.33;;;;;;;;;;4974894;28;20130;-78
2023/07/26 07:07:48;;;;;;;5.85;1.10;;;;;;;;;;4975499;28;20565;-77
2023/07/26 07:10:13;;;;;;;5.22;1.17;;;;;;;;;;4966721;28;20175;-77
2023/07/26 07:12:38;;;;;;;4.80;1.08;;;;;;;;;;4937287;28;20047;-77
2023/07/26 07:15:04;;;;;;;4.55;1.30;;;;;;;;;;4938512;28;20496;-77
2023/07/26 07:17:30;;;;;;;3.95;1.08;;;;;;;;;;4930471;28;20042;-77
2023/07/26 07:19:55;;;;;;;4.40;1.10;;;;;;;;;;4936851;28;20063;-77
2023/07/26 07:22:21;;;;;;;4.07;1.08;;;;;;;;;;4928146;28;20038;-77
2023/07/26 07:24:47;;;;;;;3.47;1.05;;;;;;;;;;4939634;28;20039;-77
2023/07/26 07:27:12;;;;;;;5.10;1.17;;;;;;;;;;4941124;28;20062;-78
2023/07/26 07:29:38;;;;;;;2.95;0.90;;;;;;;;;;4939647;28;20031;-78
2023/07/26 07:32:03;;;;;;;4.90;0.90;;;;;;;;;;4942408;28;20531;-78
2023/07/26 07:34:29;;;;;;;4.18;1.08;;;;;;;;;;4931812;28;20853;-78
2023/07/26 07:36:54;;;;;;;4.32;1.08;;;;;;;;;;4949832;28;20043;-78
2023/07/26 07:39:20;;;;;;;16.73;2.85;;;;;;;;;;4955516;28;20562;-78
2023/07/26 07:41:45;;;;;;;5.40;1.23;;;;;;;;;;4935780;28;20103;-78
2023/07/26 07:44:10;;;;;;;5.03;1.02;;;;;;;;;;4937492;28;20118;-77
2023/07/26 07:46:36;;;;;;;6.10;1.33;;;;;;;;;;4948906;28;20041;-77
2023/07/26 07:49:01;;;;;;;3.80;1.00;;;;;;;;;;4972388;28;21006;-77
2023/07/26 07:51:26;;;;;;;3.70;0.90;;;;;;;;;;4977641;28;20038;-77
2023/07/26 07:53:52;;;;;;;2.90;1.00;;;;;;;;;;4979643;28;20049;-78
2023/07/26 07:56:18;;;;;;;2.67;0.90;;;;;;;;;;4973734;28;20089;-76
2023/07/26 07:58:43;;;;;;;3.33;0.85;;;;;;;;;;4994981;28;20041;-77
2023/07/26 08:01:08;;;;;;;3.35;0.90;;;;;;;;;;4982886;28;20038;-77
2023/07/26 08:03:34;;;;;;;6.28;0.95;;;;;;;;;;4979385;28;20039;-76
2023/07/26 08:05:59;;;;;;;3.85;0.80;;;;;;;;;;4976512;28;20034;-78
2023/07/26 08:08:25;;;;;;;2.58;0.80;;;;;;;;;;4974678;28;20038;-76
2023/07/26 08:10:50;;;;;;;4.97;1.27;;;;;;;;;;4962477;28;20030;-76
2023/07/26 08:13:16;;;;;;;3.65;1.00;;;;;;;;;;4978895;28;20050;-76
2023/07/26 08:15:41;;;;;;;3.97;1.00;;;;;;;;;;4969296;28;21000;-77
2023/07/26 08:18:07;;;;;;;2.88;0.90;;;;;;;;;;4996932;28;20034;-76
2023/07/26 08:20:33;;;;;;;2.35;0.80;;;;;;;;;;4979757;28;20101;-76
2023/07/26 08:22:59;;;;;;;3.20;0.77;;;;;;;;;;4996579;28;20034;-76
2023/07/26 08:25:25;;;;;;;2.65;0.70;;;;;;;;;;4978576;28;20026;-77
2023/07/26 08:27:50;;;;;;;5.00;0.98;;;;;;;;;;4984546;28;20029;-77
2023/07/26 08:30:15;;;;;;;6.15;1.02;;;;;;;;;;4972290;28;20092;-77
2023/07/26 08:32:41;;;;;;;2.72;1.00;;;;;;;;;;4997854;28;20033;-78
2023/07/26 08:35:06;;;;;;;2.95;0.80;;;;;;;;;;4978337;28;20048;-78
2023/07/26 08:37:32;;;;;;;3.15;0.90;;;;;;;;;;4971785;28;20038;-78
2023/07/26 08:39:57;;;;;;;4.07;0.90;;;;;;;;;;4982713;28;20049;-77
2023/07/26 08:42:22;;;;;;;3.55;1.00;;;;;;;;;;4988237;28;20050;-77
2023/07/26 08:44:50;;;;;;;3.70;0.98;;;;;;;;;;4996311;28;20034;-76
2023/07/26 08:47:16;;;;;;;3.40;0.90;;;;;;;;;;4980731;28;20042;-77
2023/07/26 08:49:42;;;;;;;4.45;1.00;;;;;;;;;;4988327;28;20034;-76
2023/07/26 08:52:09;;;;;;;3.85;0.90;;;;;;;;;;4975823;28;20046;-77
2023/07/26 08:54:35;;;;;;;2.67;0.90;;;;;;;;;;4980120;28;20460;-77
2023/07/26 08:57:01;;;;;;;3.35;0.95;;;;;;;;;;4966098;28;20048;-76
2023/07/26 08:59:27;;;;;;;3.95;0.98;;;;;;;;;;4995703;28;20045;-78
2023/07/26 09:01:56;;;;;;;2.85;0.95;;;;;;;;;;4993937;28;20144;-77
2023/07/26 09:04:22;;;;;;;3.10;1.05;;;;;;;;;;4968777;28;20165;-77
2023/07/26 09:06:48;;;;;;;2.63;0.90;;;;;;;;;;4978435;28;20039;-78
2023/07/26 09:09:14;;;;;;;2.60;0.75;;;;;;;;;;4995092;28;20435;-77
2023/07/26 09:11:51;;;;;;;1.95;0.77;;;;;;;;;;4962314;28;20049;-78
2023/07/26 09:14:17;;;;;;;2.25;0.65;;;;;;;;;;4966251;28;20677;-76
2023/07/26 09:16:42;;;;;;;3.58;0.88;;;;;;;;;;4968230;28;20038;-77
2023/07/26 09:19:08;;;;;;;3.15;0.80;;;;;;;;;;4975205;28;20125;-76
2023/07/26 09:21:35;;;;;;;2.00;0.88;;;;;;;;;;4974108;28;20050;-78
2023/07/26 09:24:03;;;;;;;2.70;0.98;;;;;;;;;;4972675;28;20052;-77
2023/07/26 09:26:39;;;;;;;3.80;1.17;;;;;;;;;;4973468;28;20450;-77
2023/07/26 09:29:16;;;;;;;3.45;0.90;;;;;;;;;;4982264;28;20620;-77
2023/07/26 09:31:43;;;;;;;3.00;0.90;;;;;;;;;;4990118;28;20081;-77
2023/07/26 09:34:14;;;;;;;2.50;0.90;;;;;;;;;;4978081;28;20516;-77
2023/07/26 09:36:40;;;;;;;2.38;0.70;;;;;;;;;;4978254;28;20507;-77
2023/07/26 09:39:06;;;;;;;4.18;0.98;;;;;;;;;;4983499;28;20062;-77
2023/07/26 09:41:31;;;;;;;4.75;1.00;;;;;;;;;;4967595;28;20039;-77
2023/07/26 09:43:59;;;;;;;2.80;0.70;;;;;;;;;;4967551;28;20037;-77
2023/07/26 09:46:24;;;;;;;3.08;0.50;;;;;;;;;;4976585;28;20045;-77
2023/07/26 09:48:58;;;;;;;4.13;0.90;;;;;;;;;;4973389;28;20385;-77
2023/07/26 09:51:29;;;;;;;3.70;0.70;;;;;;;;;;4972405;28;20034;-77
2023/07/26 09:53:56;;;;;;;2.97;0.88;;;;;;;;;;4965737;28;20049;-77
2023/07/26 09:56:23;;;;;;;2.00;0.65;;;;;;;;;;4973732;28;20043;-76
2023/07/26 09:58:49;;;;;;;2.28;0.80;;;;;;;;;;4963725;28;20031;-76
2023/07/26 10:01:17;;;;;;;2.83;0.80;;;;;;;;;;4976001;28;20053;-76
2023/07/26 10:03:46;;;;;;;3.78;0.95;;;;;;;;;;4967519;28;20034;-77
2023/07/26 10:06:12;;;;;;;3.33;0.80;;;;;;;;;;4975025;28;20058;-76
2023/07/26 10:08:41;;;;;;;2.83;0.88;;;;;;;;;;4988754;28;20040;-76
2023/07/26 10:11:07;;;;;;;2.78;0.80;;;;;;;;;;4975723;28;20426;-77
2023/07/26 10:13:34;;;;;;;2.15;0.77;;;;;;;;;;4974254;28;20038;-77
2023/07/26 10:16:00;;;;;;;2.20;0.70;;;;;;;;;;4975184;28;20042;-76
2023/07/26 10:18:27;;;;;;;2.67;0.70;;;;;;;;;;4964934;28;20101;-76
2023/07/26 10:20:53;;;;;;;2.47;0.95;;;;;;;;;;4972731;28;20034;-76
2023/07/26 10:23:18;;;;;;;3.78;0.60;;;;;;;;;;4964958;28;20174;-76
2023/07/26 10:25:44;;;;;;;2.53;0.80;;;;;;;;;;4964323;28;20235;-77
2023/07/26 10:28:11;;;;;;;3.78;1.00;;;;;;;;;;4975528;28;20251;-77
2023/07/26 10:30:37;;;;;;;2.22;0.80;;;;;;;;;;4959019;28;20104;-77
2023/07/26 10:33:03;;;;;;;3.25;0.70;;;;;;;;;;4956555;28;20419;-77
2023/07/26 10:35:30;;;;;;;2.72;0.80;;;;;;;;;;4976274;28;20047;-77
2023/07/26 10:38:01;;;;;;;2.80;0.90;;;;;;;;;;4972336;28;20038;-78
2023/07/26 10:40:32;;;;;;;2.25;0.85;;;;;;;;;;4988976;28;20378;-76
2023/07/26 10:42:59;;;;;;;2.15;0.60;;;;;;;;;;4967243;28;20027;-76
2023/07/26 10:45:44;;;;;;;2.80;0.80;;;;;;;;;;4963102;28;20035;-76
2023/07/26 10:48:34;;;;;;;2.90;0.90;;;;;;;;;;4972365;28;20081;-76
2023/07/26 10:51:33;;;;;;;3.70;0.93;;;;;;;;;;4955512;28;20486;-77
2023/07/26 10:53:59;;;;;;;3.83;1.00;;;;;;;;;;4972124;28;20081;-77
2023/07/26 10:56:26;;;;;;;3.63;0.80;;;;;;;;;;4970389;28;20073;-77
2023/07/26 10:58:54;;;;;;;3.65;1.00;;;;;;;;;;4979507;28;20047;-77
2023/07/26 11:01:31;;;;;;;;;;;;;;;;;;4972455;28;20042;-79
2023/07/26 11:03:57;;;;;;;3.17;0.80;;;;;;;;;;4969432;28;19914;-78
2023/07/26 11:06:23;;;;;;;4.35;1.10;;;;;;;;;;4972588;28;20412;-76
2023/07/26 11:08:51;;;;;;;3.03;1.00;;;;;;;;;;4974819;28;20042;-76
2023/07/26 11:11:17;;;;;;;2.35;0.90;;;;;;;;;;4973017;28;20442;-76
2023/07/26 11:13:44;;;;;;;3.05;0.90;;;;;;;;;;4966304;28;20038;-78
2023/07/26 11:16:09;;;;;;;3.63;0.95;;;;;;;;;;4978117;28;20604;-76
2023/07/26 11:18:40;;;;;;;3.95;0.98;;;;;;;;;;4957616;28;20038;-77
2023/07/26 11:21:05;;;;;;;3.53;1.02;;;;;;;;;;4973238;28;20508;-76
2023/07/26 11:23:30;;;;;;;2.85;1.00;;;;;;;;;;4972911;28;20173;-77
2023/07/26 11:25:58;;;;;;;3.20;0.90;;;;;;;;;;4966112;28;20058;-76
2023/07/26 11:28:27;;;;;;;2.72;1.00;;;;;;;;;;4977808;28;20043;-77
2023/07/26 11:30:54;;;;;;;3.50;0.90;;;;;;;;;;4975180;28;20495;-78
2023/07/26 11:33:26;;;;;;;;;;;;;;;;;;4977980;28;20034;-77
2023/07/26 11:35:51;;;;;;;3.38;0.82;;;;;;;;;;4975851;28;20448;-77
2023/07/26 11:38:17;;;;;;;3.35;0.90;;;;;;;;;;4968034;28;20080;-77
2023/07/26 11:40:43;;;;;;;2.20;0.90;;;;;;;;;;4969145;28;20031;-76
2023/07/26 11:43:10;;;;;;;2.58;0.88;;;;;;;;;;4970334;28;20054;-77
2023/07/26 11:45:37;;;;;;;2.95;0.80;;;;;;;;;;4966268;28;20413;-77
2023/07/26 11:48:08;;;;;;;3.33;0.95;;;;;;;;;;4982722;28;20038;-77
2023/07/26 11:50:34;;;;;;;2.45;0.85;;;;;;;;;;4974764;28;20522;-77
2023/07/26 11:53:08;;;;;;;3.22;0.80;;;;;;;;;;4978609;28;20030;-77
2023/07/26 11:55:34;;;;;;;3.50;0.80;;;;;;;;;;4963909;28;20444;-77
2023/07/26 11:58:03;;;;;;;2.92;1.17;;;;;;;;;;4991700;28;20030;-77
2023/07/26 12:00:30;;;;;;;3.40;0.85;;;;;;;;;;4967654;28;20041;-76
2023/07/26 12:02:56;;;;;;;2.50;0.93;;;;;;;;;;4991166;28;20137;-77
2023/07/26 12:05:28;;;;;;;4.55;1.48;;;;;;;;;;4974050;28;20121;-76
2023/07/26 12:07:55;;;;;;;4.82;1.17;;;;;;;;;;4979245;28;20035;-76
2023/07/26 12:10:31;;;;;;;5.20;1.40;;;;;;;;;;4992259;28;20402;-76
2023/07/26 12:12:57;;;;;;;4.88;1.30;;;;;;;;;;4992403;28;20065;-76
2023/07/26 12:15:23;;;;;;;4.43;1.23;;;;;;;;;;4986010;28;20035;-76
2023/07/26 12:18:03;;;;;;;3.83;1.20;;;;;;;;;;4992998;28;20042;-76
2023/07/26 12:20:29;;;;;;;4.07;1.20;;;;;;;;;;4980994;28;20867;-76
2023/07/26 12:22:57;;;;;;;3.27;1.23;;;;;;;;;;4964998;28;20502;-76
2023/07/26 12:25:36;;;;;;;3.90;1.20;;;;;;;;;;4966163;28;20038;-76
2023/07/26 12:28:05;;;;;;;3.60;1.20;;;;;;;;;;4968850;28;20074;-76
2023/07/26 12:30:31;;;;;;;3.58;1.10;;;;;;;;;;4968503;28;20561;-76
2023/07/26 12:33:11;;;;;;;2.38;0.90;;;;;;;;;;4977319;28;20027;-77
2023/07/26 12:35:38;;;;;;;2.75;1.00;;;;;;;;;;4989274;28;20046;-77
2023/07/26 12:38:08;;;;;;;3.37;0.83;;;;;;;;;;4964935;28;20042;-77
2023/07/26 12:40:34;;;;;;;4.20;1.05;;;;;;;;;;4990375;28;20085;-77
2023/07/26 12:42:59;;;;;;;2.70;1.02;;;;;;;;;;4980088;28;20035;-76
2023/07/26 12:45:24;;;;;;;5.13;1.13;;;;;;;;;;4973212;28;20149;-77
2023/07/26 12:47:50;;;;;;;2.78;0.88;;;;;;;;;;4972156;28;20120;-76
2023/07/26 12:50:15;;;;;;;3.75;1.00;;;;;;;;;;4973533;28;20438;-76
2023/07/26 12:52:41;;;;;;;2.63;1.00;;;;;;;;;;4978079;28;20518;-77
2023/07/26 12:55:06;;;;;;;1.90;0.70;;;;;;;;;;4981489;28;20039;-76
2023/07/26 12:57:32;;;;;;;2.50;0.88;;;;;;;;;;4974768;28;20037;-76
2023/07/26 12:59:57;;;;;;;3.45;0.98;;;;;;;;;;4975587;28;20780;-76
2023/07/26 13:02:22;;;;;;;4.03;0.93;;;;;;;;;;4973629;28;20769;-76
2023/07/26 13:04:48;;;;;;;2.88;1.13;;;;;;;;;;4975438;28;20442;-76
2023/07/26 13:07:13;;;;;;;2.78;1.13;;;;;;;;;;4966704;28;20450;-76
2023/07/26 13:09:38;;;;;;;3.50;1.10;;;;;;;;;;4967049;28;20049;-76
2023/07/26 13:12:04;;;;;;;2.67;0.90;;;;;;;;;;4979855;28;20043;-76
2023/07/26 13:14:29;;;;;;;2.00;0.80;;;;;;;;;;4980341;28;20034;-76
2023/07/26 13:16:55;;;;;;;2.95;1.17;;;;;;;;;;4974491;28;20038;-76
2023/07/26 13:19:20;;;;;;;2.55;1.05;;;;;;;;;;4982616;28;20568;-77
2023/07/26 13:21:45;;;;;;;5.07;1.00;;;;;;;;;;4974639;28;20038;-77
2023/07/26 13:24:11;;;;;;;2.67;0.77;;;;;;;;;;4965617;28;20035;-77
2023/07/26 13:26:36;;;;;;;2.78;0.95;;;;;;;;;;4975219;28;20085;-77
2023/07/26 13:29:01;;;;;;;2.08;0.90;;;;;;;;;;4966370;28;20469;-76
2023/07/26 13:31:27;;;;;;;2.47;0.82;;;;;;;;;;4973517;28;20568;-78
2023/07/26 13:33:52;;;;;;;2.58;0.90;;;;;;;;;;4966100;28;20845;-76
2023/07/26 13:36:25;;;;;;;3.03;1.10;;;;;;;;;;4975851;28;20042;-76
2023/07/26 13:38:50;;;;;;;1.58;0.60;;;;;;;;;;4965220;28;20108;-77
2023/07/26 13:41:15;;;;;;;2.65;0.80;;;;;;;;;;4977997;28;20042;-78
2023/07/26 13:43:41;;;;;;;1.88;0.75;;;;;;;;;;4974902;28;20052;-77
2023/07/26 13:46:06;;;;;;;2.05;0.63;;;;;;;;;;4961214;28;20189;-76
2023/07/26 13:48:32;;;;;;;2.15;0.70;;;;;;;;;;4990896;28;20030;-76
2023/07/26 13:50:57;;;;;;;1.67;0.60;;;;;;;;;;4975651;28;20037;-76
2023/07/26 13:53:22;;;;;;;2.22;0.80;;;;;;;;;;4956792;28;20487;-76
2023/07/26 13:55:48;;;;;;;2.50;0.65;;;;;;;;;;4977559;28;20037;-77
2023/07/26 13:58:13;;;;;;;2.65;0.88;;;;;;;;;;4982932;28;20037;-76
2023/07/26 14:00:39;;;;;;;2.08;0.82;;;;;;;;;;4984761;28;20046;-76
2023/07/26 14:03:04;;;;;;;3.03;0.60;;;;;;;;;;4959399;28;20051;-76
2023/07/26 14:05:31;;;;;;;3.15;1.00;;;;;;;;;;4962404;28;20041;-76
2023/07/26 14:07:56;;;;;;;2.58;0.95;;;;;;;;;;4977809;28;20541;-76
2023/07/26 14:10:21;;;;;;;2.17;0.73;;;;;;;;;;4974571;28;20043;-76
2023/07/26 14:12:47;;;;;;;4.65;0.73;;;;;;;;;;4974084;28;20061;-76
2023/07/26 14:15:12;;;;;;;2.35;0.70;;;;;;;;;;4966219;28;20076;-77
2023/07/26 14:17:37;;;;;;;3.60;0.90;;;;;;;;;;4973085;28;20387;-76
2023/07/26 14:20:03;;;;;;;3.38;0.82;;;;;;;;;;4996349;28;20085;-77
2023/07/26 14:22:29;;;;;;;2.80;1.00;;;;;;;;;;4991850;28;20054;-76
2023/07/26 14:24:54;;;;;;;2.17;0.70;;;;;;;;;;4994592;28;20061;-76
2023/07/26 14:27:19;;;;;;;1.92;0.73;;;;;;;;;;4965999;28;20092;-77
2023/07/26 14:29:45;;;;;;;2.08;0.68;;;;;;;;;;4979062;28;20038;-76
2023/07/26 14:32:10;;;;;;;2.03;0.75;;;;;;;;;;4992708;28;20038;-77
2023/07/26 14:34:35;;;;;;;2.58;0.77;;;;;;;;;;4975616;28;20060;-77
2023/07/26 14:37:01;;;;;;;2.30;0.82;;;;;;;;;;4984949;28;20040;-76
2023/07/26 14:39:26;;;;;;;2.78;0.90;;;;;;;;;;4980111;28;20030;-77